• Join FlightAware (Why Join?)
  • Login
  • US Flag 
12:16PM EDT


 

Airport Tracker/Info


-or-


 

Live Flight TrackerFlight Track Log ✈ FLG3735 ✈ 10-Jun-2013 ✈ KDTW - KALB

Flight Track Log - Related Links

Times and Time Zones

All times are in EDT time to prevent confusion due to time zone crossing. See the FLG3735 flight status page for this flight to view local times or setup timezone preferences in your user account.

Time Position Orientation Groundspeed Altitude Reporting Facility
EDT Latitude Longitude Course Direction KTS MPH feet Rate Location/Type
10:31PM 42.1994 -83.3581 56° Northeast 159 183 1,200  Level Cleveland Center
10:33PM 42.1433 -83.3500 174° South 219 252 3,000 1,560 Climbing Cleveland Center
10:34PM 42.0769 -83.3358 171° South 260 299 4,600 1,980 Climbing Cleveland Center
10:35PM 42.0069 -83.3022 160° South 292 336 7,100 2,340 Climbing Cleveland Center
10:36PM 42.3298 -82.6193 82° East  Level FlightAware Approximate
10:36PM 42.0156 -83.2019 83° East 296 341 9,400  Level Cleveland Center
10:36PM 42.0464 -83.1333 59° Northeast 319 367 10,000 1,020 Climbing Cleveland Center
10:37PM 42.3544 -82.4745 56° Northeast  Level FlightAware Approximate
10:37PM 42.0878 -83.0425 58° Northeast 313 360 11,100  Level Cleveland Center
10:38PM 42.1381 -82.9381 57° Northeast 318 366 12,900 1,620 Climbing Cleveland Center
10:39PM 42.1922 -82.8281 56° Northeast 331 381 14,400 1,500 Climbing Cleveland Center
10:40PM 42.2300 -82.7058 67° East 336 387 15,900 1,200 Climbing Cleveland Center
10:41PM 42.2306 -82.5658 90° East 349 402 16,900 960 Climbing Cleveland Center
10:42PM 42.2286 -82.4200 91° East 368 423 17,900 1,020 Climbing Cleveland Center
10:43PM 42.2289 -82.2683 90° East 389 448 19,000 1,080 Climbing Cleveland Center
10:44PM 42.2292 -82.1142 90° East 401 461 20,100 1,020 Climbing Cleveland Center
10:45PM 42.2289 -81.9628 90° East 408 470 21,100 960 Climbing Cleveland Center
10:46PM 42.2286 -81.8086 90° East 408 470 22,100 780 Climbing Cleveland Center
10:47PM 42.2300 -81.6544 89° East 402 463 22,700 540 Climbing Cleveland Center
10:48PM 42.2253 -81.4806 92° East 408 470 23,200 480 Climbing Cleveland Center
10:49PM 42.2264 -81.3206 89° East 421 484 23,700 540 Climbing Cleveland Center
10:50PM 42.2253 -81.1581 90° East 421 484 24,300 540 Climbing Cleveland Center
10:51PM 42.2219 -80.9953 92° East 430 495 24,800 480 Climbing Cleveland Center
10:52PM 42.2203 -80.8300 91° East 436 502 25,300 480 Climbing Cleveland Center
10:53PM 42.2206 -80.6644 90° East 441 507 25,800 480 Climbing Cleveland Center
10:54PM 42.2164 -80.5019 92° East 436 502 26,300 420 Climbing Cleveland Center
10:55PM 42.2267 -80.3506 85° East 436 502 26,700 420 Climbing Cleveland Center
10:56PM 42.2447 -80.1850 82° East 441 507 27,200 540 Climbing Cleveland Center
10:57PM 42.2608 -80.0192 82° East 448 516 27,800 540 Climbing Cleveland Center
10:58PM 42.2808 -79.8508 81° East 448 516 28,300 480 Climbing Cleveland Center
10:59PM 42.2983 -79.6850 82° East 448 516 28,800 480 Climbing Cleveland Center
11:00PM 42.3156 -79.5189 82° East 448 516 29,300 480 Climbing Cleveland Center
11:01PM 42.3328 -79.3500 82° East 448 516 29,800 480 Climbing Cleveland Center
11:02PM 42.3497 -79.1869 82° East 443 510 30,300 480 Climbing Cleveland Center
11:03PM 42.3642 -79.0208 83° East 443 510 30,800 300 Climbing Cleveland Center
11:04PM 42.3825 -78.8347 82° East 448 516 31,000 60 Climbing Cleveland Center
11:05PM 42.3986 -78.6683 82° East 448 516 31,000  Level Cleveland Center
11:06PM 42.4142 -78.4908 83° East 453 521 31,000 -120 Level Cleveland Center
11:07PM 42.4317 -78.3186 82° East 458 527 30,800 -600 Descending Cleveland Center
11:08PM 42.4467 -78.1350 84° East 471 542 29,800 -900 Descending Cleveland Center
11:09PM 42.4636 -77.9486 83° East 487 560 29,000 -420 Descending Cleveland Center
11:10PM 42.4803 -77.7706 83° East 487 560 29,000  Level Cleveland Center
11:11PM 42.4944 -77.5897 84° East 482 555 29,000  Level Cleveland Center
11:14PM 42.5289 -77.1714 83° East 481 554 29,000  Level Boston Center
11:15PM 42.5425 -76.9919 84° East 475 547 29,000  Level Boston Center
11:16PM 42.5558 -76.8125 84° East 475 547 29,000  Level Boston Center
11:17PM 42.5689 -76.6383 84° East 475 547 29,000  Level Boston Center
11:18PM 42.5814 -76.4589 85° East 475 547 29,000  Level Boston Center
11:19PM 42.5958 -76.2819 84° East 475 547 29,000  Level Boston Center
11:20PM 42.6103 -76.1050 84° East 475 547 29,000  Level Boston Center
11:21PM 42.6200 -75.9278 86° East 475 547 29,000 -480 Level Boston Center
11:22PM 42.6314 -75.7506 85° East 475 547 28,100 -1,800 Descending Boston Center
11:23PM 42.6431 -75.5619 85° East 487 560 25,500 -2,580 Descending Boston Center
11:24PM 42.6583 -75.3764 84° East 487 560 23,000 -2,520 Descending Boston Center
11:25PM 42.6669 -75.2017 86° East 481 554 20,500 -2,580 Descending Boston Center
11:26PM 42.6792 -75.0328 84° East 474 545 17,900 -2,400 Descending Boston Center
11:26PM 42.6889 -74.8833 85° East 426 490 15,900 -2,220 Descending Boston Center
11:27PM 42.6900 -74.8356 88° East 420 483 15,200 -2,100 Descending Boston Center
11:28PM 42.6967 -74.7114 86° East 422 486 13,700 -1,920 Descending Boston Center
11:28PM 42.7014 -74.6806 78° East 413 475 13,300 -1,740 Descending Boston Center
11:29PM 42.7056 -74.5761 87° East 405 466 12,000 -1,800 Descending Boston Center
11:29PM 42.7106 -74.5283 82° East 397 457 11,500 -1,200 Descending Boston Center
11:30PM 42.7206 -74.4269 82° East 385 443 10,800 -1,020 Descending Boston Center
11:30PM 42.7317 -74.4017 59° Northeast 335 386 10,500 -1,020 Descending Boston Center
11:31PM 42.7514 -74.3375 67° East 339 390 9,800 -1,680 Descending Boston Center
11:31PM 42.7669 -74.2842 68° East 297 342 8,800 -2,340 Descending Boston Center
11:32PM 42.7931 -74.2142 63° Northeast 301 346 7,500 -2,100 Descending Boston Center
11:32PM 42.8039 -74.1861 62° Northeast 294 338 6,700 -2,100 Descending Boston Center
11:33PM 42.8236 -74.1217 67° East 289 333 5,400 -2,040 Descending Boston Center
11:33PM 42.8367 -74.0853 64° Northeast 288 331 4,700 -1,440 Descending Boston Center
11:34PM 42.8583 -74.0292 62° Northeast 282 325 4,000 -1,140 Descending Boston Center
11:34PM 42.8692 -73.9953 66° East 251 289 3,600 -720 Descending Boston Center
11:35PM 42.8822 -73.9475 70° East 246 283 3,300 -540 Descending Boston Center
11:35PM 42.8953 -73.9167 60° Northeast 202 232 3,100 -540 Descending Boston Center
11:36PM 42.9083 -73.8658 71° East 214 246 2,800 -600 Descending Boston Center
11:36PM 42.9128 -73.8433 75° East 205 236 2,500 -840 Descending Boston Center
11:37PM 42.8819 -73.8142 145° Southeast 168 193 2,000 -540 Descending Boston Center
11:37PM 42.8672 -73.8139 179° South 180 207 2,000  Level Boston Center